Time;durP1;ratioP1;P1;durP2;ratioP2;P2;SDS_P1;SDS_P2;PMS_P1;PMS_P2;Temp;Humidity;BMP_temperature;BMP_pressure;BME280_temperature;BME280_humidity;BME280_pressure;Samples;Min_cycle;Max_cycle;Signal;HPM_P1;HPM_P2
2023/02/10 00:02:05;;;;;;;12.48;3.95;;;;;;;4.14;100.00;102855.28;4980704;28;20041;-72
2023/02/10 00:04:31;;;;;;;24.85;6.38;;;;;;;4.18;100.00;102851.53;4997644;28;20048;-71
2023/02/10 00:06:57;;;;;;;19.15;5.97;;;;;;;4.21;100.00;102849.63;4998014;28;20030;-71
2023/02/10 00:09:22;;;;;;;25.67;7.78;;;;;;;4.18;100.00;102840.88;4997916;28;20049;-70
2023/02/10 00:11:57;;;;;;;32.63;8.82;;;;;;;4.22;100.00;102843.38;4997397;28;20088;-70
2023/02/10 00:14:23;;;;;;;32.42;8.35;;;;;;;4.22;100.00;102846.03;4998874;28;20378;-70
2023/02/10 00:16:51;;;;;;;10.75;4.53;;;;;;;4.19;100.00;102841.75;4981402;28;20029;-72
2023/02/10 00:19:16;;;;;;;17.40;5.15;;;;;;;4.27;100.00;102841.31;5013020;28;20096;-70
2023/02/10 00:21:43;;;;;;;28.23;6.30;;;;;;;4.32;100.00;102836.59;4997413;28;20480;-70
2023/02/10 00:24:09;;;;;;;15.05;4.40;;;;;;;4.34;100.00;102835.59;4996707;28;20388;-71
2023/02/10 00:26:35;;;;;;;16.88;4.82;;;;;;;4.34;100.00;102835.59;4997631;28;20038;-70
2023/02/10 00:29:01;;;;;;;7.70;4.10;;;;;;;4.36;100.00;102839.00;4981411;28;20069;-70
2023/02/10 00:31:27;;;;;;;9.80;3.63;;;;;;;4.44;100.00;102835.06;4996698;28;20053;-71
2023/02/10 00:33:55;;;;;;;16.25;5.07;;;;;;;4.44;100.00;102835.06;4997570;28;20034;-70
2023/02/10 00:36:21;;;;;;;13.32;3.00;;;;;;;4.46;100.00;102839.34;4996721;28;20029;-71
2023/02/10 00:38:51;;;;;;;11.75;4.28;;;;;;;4.47;100.00;102834.88;4981822;28;20544;-71
2023/02/10 00:41:19;;;;;;;18.10;4.57;;;;;;;4.51;100.00;102836.44;4997001;28;20116;-71
2023/02/10 00:43:46;;;;;;;13.15;3.58;;;;;;;4.50;100.00;102821.38;4996927;28;20038;-71
2023/02/10 00:46:14;;;;;;;10.63;4.30;;;;;;;4.54;100.00;102820.28;4997414;28;20380;-70
2023/02/10 00:48:40;;;;;;;16.35;4.82;;;;;;;4.60;100.00;102823.47;5012860;28;20049;-70
2023/02/10 00:51:06;;;;;;;8.65;3.15;;;;;;;4.61;100.00;102811.00;4997150;28;20038;-70
2023/02/10 00:53:33;;;;;;;20.77;4.30;;;;;;;4.68;100.00;102817.69;4996829;28;20045;-70
2023/02/10 00:55:59;;;;;;;8.02;3.28;;;;;;;4.73;100.00;102810.28;4997122;28;20100;-71
2023/02/10 00:58:25;;;;;;;6.65;2.22;;;;;;;4.77;100.00;102805.66;4996767;28;20468;-72
2023/02/10 01:00:54;;;;;;;11.20;3.22;;;;;;;4.82;100.00;102808.94;4996523;28;20030;-70
2023/02/10 01:03:20;;;;;;;12.30;3.40;;;;;;;4.86;100.00;102807.78;4995034;28;20476;-71
2023/02/10 01:05:46;;;;;;;10.15;3.17;;;;;;;4.87;100.00;102811.31;4995970;28;20179;-70
2023/02/10 01:08:16;;;;;;;10.23;4.03;;;;;;;4.91;100.00;102797.72;4981094;28;20034;-71
2023/02/10 01:10:42;;;;;;;8.30;4.10;;;;;;;4.94;100.00;102796.69;4996818;28;20660;-70
2023/02/10 01:13:09;;;;;;;17.25;5.88;;;;;;;4.83;100.00;102779.50;4979787;28;20483;-70
2023/02/10 01:15:35;;;;;;;11.85;4.18;;;;;;;4.95;100.00;102793.06;5012789;28;20109;-71
2023/02/10 01:18:04;;;;;;;10.05;3.08;;;;;;;4.97;100.00;102791.16;4996771;28;20499;-71
2023/02/10 01:20:29;;;;;;;10.50;2.80;;;;;;;4.97;100.00;102791.16;4995682;28;20037;-71
2023/02/10 01:22:55;;;;;;;15.40;3.60;;;;;;;5.00;100.00;102788.31;4996711;28;20025;-70
2023/02/10 01:25:21;;;;;;;12.13;3.05;;;;;;;5.07;100.00;102792.34;4996251;28;20472;-71
2023/02/10 01:27:46;;;;;;;3.67;1.70;;;;;;;5.09;100.00;102779.81;4996232;28;20030;-70
2023/02/10 01:30:12;;;;;;;6.55;2.05;;;;;;;5.11;100.00;102777.91;4980517;28;20049;-70
2023/02/10 01:32:38;;;;;;;5.40;2.50;;;;;;;5.20;100.00;102780.00;4979753;28;20037;-70
2023/02/10 01:35:07;;;;;;;6.85;2.47;;;;;;;5.24;100.00;102773.56;4996028;28;20030;-70
2023/02/10 01:37:33;;;;;;;7.07;1.88;;;;;;;5.29;100.00;102779.47;5012824;28;20113;-70
2023/02/10 01:39:59;;;;;;;2.00;1.25;;;;;;;5.33;100.00;102773.97;4979869;28;20045;-71
2023/02/10 01:42:25;;;;;;;8.95;2.67;;;;;;;5.38;100.00;102771.88;4996334;28;20383;-70
2023/02/10 01:44:53;;;;;;;8.55;1.60;;;;;;;5.41;100.00;102769.00;4979793;28;20030;-71
2023/02/10 01:47:22;;;;;;;8.15;2.50;;;;;;;5.41;100.00;102764.53;5012107;28;20045;-70
2023/02/10 01:49:50;;;;;;;11.70;2.15;;;;;;;5.48;100.00;102765.03;4981263;28;20038;-70
2023/02/10 01:52:20;;;;;;;9.82;2.05;;;;;;;5.49;100.00;102764.06;4980503;28;20040;-70
2023/02/10 01:55:04;;;;;;;14.25;2.33;;;;;;;5.50;100.00;102768.44;5011793;28;20480;-70
2023/02/10 01:57:33;;;;;;;8.50;2.05;;;;;;;5.55;100.00;102766.34;4981218;28;20392;-71
2023/02/10 02:00:00;;;;;;;5.25;1.73;;;;;;;5.53;100.00;102759.41;4979612;28;20163;-70
2023/02/10 02:02:29;;;;;;;3.25;1.50;;;;;;;5.58;100.00;102771.50;4980485;28;20056;-70
2023/02/10 02:05:02;;;;;;;7.70;1.55;;;;;;;5.60;100.00;102774.09;4979465;28;20100;-70
2023/02/10 02:07:34;;;;;;;7.43;1.80;;;;;;;5.62;100.00;102769.53;5013190;28;20030;-70
2023/02/10 02:10:01;;;;;;;9.73;1.67;;;;;;;5.62;100.00;102757.03;4996323;28;20506;-70
2023/02/10 02:12:37;;;;;;;6.28;1.90;;;;;;;5.69;100.00;102771.72;4979070;28;20053;-70
2023/02/10 02:15:09;;;;;;;2.25;0.93;;;;;;;5.65;100.00;102751.50;5028443;28;20112;-70
2023/02/10 02:17:43;;;;;;;7.43;1.50;;;;;;;5.78;100.00;102764.94;5011250;28;20176;-72
2023/02/10 02:20:41;;;;;;;3.22;1.20;;;;;;;5.54;100.00;102723.78;4996086;28;20025;-70
2023/02/10 02:23:13;;;;;;;5.55;1.88;;;;;;;5.78;100.00;102756.09;4995450;28;20141;-71
2023/02/10 02:26:11;;;;;;;3.92;1.63;;;;;;;5.81;100.00;102764.75;5012829;28;20044;-70
2023/02/10 02:28:59;;;;;;;3.80;1.15;;;;;;;5.84;100.00;102753.03;4977947;28;20476;-70
2023/02/10 02:31:43;;;;;;;6.15;1.90;;;;;;;5.84;100.00;102761.88;5015859;28;20061;-71
2023/02/10 02:34:34;;;;;;;5.63;1.65;;;;;;;5.86;100.00;102767.13;4999881;28;20124;-70
2023/02/10 02:37:12;;;;;;;1.33;1.13;;;;;;;5.83;100.00;102752.16;5014635;28;20041;-71
2023/02/10 02:39:38;;;;;;;7.45;1.48;;;;;;;5.83;100.00;102749.50;4999796;28;20048;-71
2023/02/10 02:42:07;;;;;;;4.95;1.10;;;;;;;5.90;100.00;102748.16;4999197;28;20041;-71
2023/02/10 02:44:33;;;;;;;2.03;1.73;;;;;;;5.90;100.00;102753.50;5015087;28;20057;-71
2023/02/10 02:47:29;;;;;;;3.50;0.90;;;;;;;5.95;100.00;102747.88;4999452;28;20124;-69
2023/02/10 02:50:01;;;;;;;4.53;1.05;;;;;;;5.88;100.00;102726.03;5001090;28;20030;-70
2023/02/10 02:52:40;;;;;;;2.08;1.15;;;;;;;6.00;100.00;102735.09;5015801;28;20041;-70
2023/02/10 02:55:13;;;;;;;6.07;1.25;;;;;;;6.07;100.00;102746.28;4984036;28;20044;-70
2023/02/10 02:57:47;;;;;;;2.72;1.10;;;;;;;6.07;100.00;102740.94;4999002;28;20128;-70
2023/02/10 03:00:24;;;;;;;8.25;1.83;;;;;;;6.08;100.00;102739.97;4983041;28;20037;-70
2023/02/10 03:02:52;;;;;;;3.42;1.20;;;;;;;6.09;100.00;102744.38;5014342;28;20151;-70
2023/02/10 03:05:21;;;;;;;2.30;1.20;;;;;;;6.10;100.00;102740.72;4999607;28;20037;-69
2023/02/10 03:07:47;;;;;;;2.95;1.40;;;;;;;6.08;100.00;102735.47;4999160;28;20045;-71
2023/02/10 03:10:13;;;;;;;6.28;1.38;;;;;;;6.08;100.00;102719.44;4997761;28;20030;-71
2023/02/10 03:12:41;;;;;;;6.63;1.00;;;;;;;6.11;100.00;102726.41;4998897;28;20045;-70
2023/02/10 03:15:07;;;;;;;2.95;0.88;;;;;;;6.13;100.00;102728.03;4998512;28;20092;-71
2023/02/10 03:17:33;;;;;;;4.40;1.50;;;;;;;6.16;100.00;102724.31;4999054;28;20109;-70
2023/02/10 03:19:59;;;;;;;3.65;1.33;;;;;;;6.14;100.00;102727.09;4998911;28;20133;-70
2023/02/10 03:22:29;;;;;;;3.92;1.30;;;;;;;6.16;100.00;102725.16;4999013;28;20113;-69
2023/02/10 03:24:54;;;;;;;3.40;1.63;;;;;;;6.15;100.00;102725.28;4998765;28;20038;-70
2023/02/10 03:27:23;;;;;;;2.05;1.35;;;;;;;6.16;100.00;102718.97;4983524;28;20034;-70
2023/02/10 03:29:52;;;;;;;5.10;1.20;;;;;;;6.16;100.00;102714.47;4998314;28;20044;-70
2023/02/10 03:32:18;;;;;;;2.85;1.05;;;;;;;6.20;100.00;102712.47;4998774;28;20037;-71
2023/02/10 03:34:45;;;;;;;2.78;1.13;;;;;;;6.23;100.00;102716.75;4982422;28;20053;-70
2023/02/10 03:37:11;;;;;;;5.32;1.17;;;;;;;6.16;100.00;102697.59;4980701;28;20121;-70
2023/02/10 03:39:36;;;;;;;2.95;1.42;;;;;;;6.22;100.00;102705.22;4998638;28;20472;-71
2023/02/10 03:42:03;;;;;;;3.35;1.67;;;;;;;6.26;100.00;102713.88;4998264;28;20041;-71
2023/02/10 03:44:31;;;;;;;3.45;1.35;;;;;;;6.23;100.00;102708.75;4981213;28;20480;-71
2023/02/10 03:46:57;;;;;;;10.15;1.58;;;;;;;6.24;100.00;102707.78;4998456;28;20026;-70
2023/02/10 03:49:22;;;;;;;4.55;1.20;;;;;;;6.25;100.00;102704.16;4980996;28;20041;-71
2023/02/10 03:51:48;;;;;;;2.75;1.10;;;;;;;6.23;100.00;102690.06;4997967;28;20133;-71
2023/02/10 03:54:14;;;;;;;2.08;0.93;;;;;;;6.31;100.00;102687.72;4998350;28;20049;-70
2023/02/10 03:56:42;;;;;;;3.10;1.23;;;;;;;6.32;100.00;102692.09;4997522;28;20036;-70
2023/02/10 03:59:08;;;;;;;4.03;1.10;;;;;;;6.33;100.00;102693.84;4998116;28;20073;-70
2023/02/10 04:01:36;;;;;;;6.10;1.90;;;;;;;6.34;100.00;102682.19;4997869;28;20030;-70
2023/02/10 04:04:02;;;;;;;2.72;1.17;;;;;;;6.38;100.00;102691.72;4997604;28;20077;-70
2023/02/10 04:06:30;;;;;;;2.75;0.77;;;;;;;6.43;100.00;102686.94;4981919;28;20065;-70
2023/02/10 04:08:58;;;;;;;1.40;1.00;;;;;;;6.45;100.00;102681.47;4998302;28;20073;-70
2023/02/10 04:11:26;;;;;;;1.75;0.73;;;;;;;6.43;100.00;102672.69;4998082;28;20471;-70
2023/02/10 04:13:54;;;;;;;1.90;0.90;;;;;;;6.52;100.00;102683.63;4997825;28;20038;-70
2023/02/10 04:16:23;;;;;;;2.85;1.00;;;;;;;6.56;100.00;102684.28;4981378;28;20033;-70
2023/02/10 04:18:49;;;;;;;4.70;1.10;;;;;;;6.58;100.00;102699.25;4998449;28;20471;-70
2023/02/10 04:21:18;;;;;;;0.80;0.60;;;;;;;6.60;100.00;102689.31;5014075;28;20096;-71
2023/02/10 04:23:47;;;;;;;0.95;0.65;;;;;;;6.62;100.00;102693.72;4997053;28;20052;-70
2023/02/10 04:26:12;;;;;;;4.68;1.30;;;;;;;6.64;100.00;102697.97;4997963;28;20033;-71
2023/02/10 04:28:38;;;;;;;3.22;0.90;;;;;;;6.64;100.00;102689.97;4997504;28;20097;-73
2023/02/10 04:31:07;;;;;;;1.20;0.73;;;;;;;6.65;100.00;102688.19;4997372;28;20476;-71
2023/02/10 04:33:44;;;;;;;2.47;0.77;;;;;;;6.65;100.00;102681.00;4998934;28;20030;-70
2023/02/10 04:36:15;;;;;;;1.17;0.70;;;;;;;6.62;100.00;102691.06;4997163;28;20049;-72
2023/02/10 04:38:42;;;;;;;1.40;0.80;;;;;;;6.60;100.00;102689.31;5013277;28;20056;-71
2023/02/10 04:41:11;;;;;;;4.40;1.15;;;;;;;6.56;100.00;102693.19;4997461;28;20399;-71
2023/02/10 04:43:36;;;;;;;2.22;0.93;;;;;;;6.53;100.00;102689.84;4996996;28;20075;-71
2023/02/10 04:46:03;;;;;;;0.85;0.70;;;;;;;6.48;100.00;102683.94;4997606;28;20030;-71
2023/02/10 04:48:34;;;;;;;1.55;0.98;;;;;;;6.45;100.00;102682.31;4996972;28;20061;-71
2023/02/10 04:51:06;;;;;;;1.52;1.25;;;;;;;6.43;100.00;102680.72;4996861;28;20030;-71
2023/02/10 04:53:32;;;;;;;1.08;0.98;;;;;;;6.43;100.00;102683.38;5013339;28;20384;-71
2023/02/10 04:55:58;;;;;;;4.90;1.10;;;;;;;6.43;100.00;102689.59;4995858;28;20038;-72
2023/02/10 04:58:24;;;;;;;1.40;1.10;;;;;;;6.43;100.00;102691.41;5013097;28;20038;-70
2023/02/10 05:00:50;;;;;;;1.33;0.80;;;;;;;6.43;100.00;102694.06;5013243;28;20085;-70
2023/02/10 05:03:16;;;;;;;3.88;1.15;;;;;;;6.35;100.00;102679.41;4996022;28;20475;-71
2023/02/10 05:05:45;;;;;;;3.95;1.42;;;;;;;6.47;100.00;102688.44;4980800;28;20052;-71
2023/02/10 05:08:14;;;;;;;2.85;1.27;;;;;;;6.50;100.00;102692.72;5012548;28;20404;-71
2023/02/10 05:10:44;;;;;;;4.18;1.80;;;;;;;6.55;100.00;102695.94;5012167;28;20511;-71
2023/02/10 05:13:10;;;;;;;3.05;1.40;;;;;;;6.53;100.00;102687.16;5013287;28;20034;-71
2023/02/10 05:15:36;;;;;;;5.53;2.13;;;;;;;6.56;100.00;102690.50;4996519;28;20076;-72
2023/02/10 05:18:01;;;;;;;3.65;1.50;;;;;;;6.62;100.00;102696.41;4996471;28;20588;-72
2023/02/10 05:20:33;;;;;;;2.13;1.23;;;;;;;6.63;100.00;102690.09;4997793;28;20372;-72
2023/02/10 05:22:59;;;;;;;2.95;1.50;;;;;;;6.67;100.00;102688.91;4980028;28;20100;-73
2023/02/10 05:25:25;;;;;;;1.30;0.77;;;;;;;6.77;100.00;102690.88;4996744;28;20487;-72
2023/02/10 05:27:53;;;;;;;3.30;1.50;;;;;;;6.82;100.00;102695.91;4996871;28;20464;-71
2023/02/10 05:30:19;;;;;;;1.80;1.05;;;;;;;6.86;100.00;102696.56;4995626;28;20042;-72
2023/02/10 05:32:45;;;;;;;2.45;1.10;;;;;;;6.92;100.00;102707.69;5012913;28;20480;-71
2023/02/10 05:35:11;;;;;;;2.00;0.80;;;;;;;6.95;100.00;102702.13;4996704;28;20038;-70
2023/02/10 05:37:37;;;;;;;3.28;1.20;;;;;;;7.01;100.00;102709.75;4979245;28;20033;-73
2023/02/10 05:40:03;;;;;;;3.65;1.65;;;;;;;7.03;100.00;102702.44;4996554;28;20030;-71
2023/02/10 05:42:29;;;;;;;1.83;1.05;;;;;;;7.07;100.00;102699.59;4996490;28;20520;-72
2023/02/10 05:44:55;;;;;;;2.47;0.88;;;;;;;7.03;100.00;102689.09;4994857;28;20124;-72
2023/02/10 05:47:20;;;;;;;1.95;0.93;;;;;;;7.10;100.00;102700.22;4996543;28;20129;-72
2023/02/10 05:49:49;;;;;;;2.92;1.63;;;;;;;7.13;100.00;102694.66;4996451;28;20026;-71
2023/02/10 05:52:15;;;;;;;3.70;1.05;;;;;;;7.13;100.00;102686.63;4995345;28;20045;-71
2023/02/10 05:54:43;;;;;;;3.17;1.15;;;;;;;7.22;100.00;102699.41;4995987;28;20041;-72
2023/02/10 05:57:12;;;;;;;1.58;1.00;;;;;;;7.21;100.00;102694.13;4980113;28;20053;-72
2023/02/10 05:59:37;;;;;;;1.27;0.90;;;;;;;7.24;100.00;102692.09;4997128;28;20038;-71
2023/02/10 06:02:07;;;;;;;1.42;0.82;;;;;;;7.29;100.00;102704.31;5000138;28;20163;-72
2023/02/10 06:04:33;;;;;;;7.72;1.17;;;;;;;7.26;100.00;102708.06;5000304;28;20127;-73
2023/02/10 06:06:59;;;;;;;2.38;1.10;;;;;;;7.26;100.00;102708.06;5015957;28;20116;-71
2023/02/10 06:09:27;;;;;;;2.72;1.10;;;;;;;7.30;100.00;102716.72;5000125;28;20029;-72
2023/02/10 06:11:53;;;;;;;1.50;0.93;;;;;;;7.35;100.00;102701.19;4999543;28;20100;-73
2023/02/10 06:14:20;;;;;;;0.80;0.80;;;;;;;7.37;100.00;102707.31;5000240;28;20045;-72
2023/02/10 06:16:50;;;;;;;1.73;0.95;;;;;;;7.39;100.00;102698.22;5016401;28;20030;-71
2023/02/10 06:19:17;;;;;;;1.50;1.00;;;;;;;7.42;100.00;102706.00;4999815;28;20103;-72
2023/02/10 06:21:43;;;;;;;3.15;1.70;;;;;;;7.44;100.00;102709.44;4999928;28;20376;-72
2023/02/10 06:24:10;;;;;;;1.73;1.17;;;;;;;7.43;100.00;102710.41;5000226;28;20042;-71
2023/02/10 06:26:36;;;;;;;5.13;1.33;;;;;;;7.42;100.00;102700.66;5015590;28;20041;-72
2023/02/10 06:29:02;;;;;;;6.85;1.67;;;;;;;7.42;100.00;102711.38;4999797;28;20034;-72
2023/02/10 06:31:30;;;;;;;2.67;1.60;;;;;;;7.34;100.00;102705.69;4983397;28;20049;-70
2023/02/10 06:33:56;;;;;;;7.28;2.10;;;;;;;7.37;100.00;102707.31;4999934;28;20026;-72
2023/02/10 06:36:22;;;;;;;6.40;2.13;;;;;;;7.33;100.00;102700.44;4999189;28;20030;-71
2023/02/10 06:38:48;;;;;;;6.07;1.90;;;;;;;7.30;100.00;102700.66;4999756;28;20038;-71
2023/02/10 06:41:13;;;;;;;9.50;2.47;;;;;;;7.29;100.00;102704.31;4999298;28;20091;-71
2023/02/10 06:43:39;;;;;;;2.53;1.40;;;;;;;7.30;100.00;102697.97;4982079;28;20038;-72
2023/02/10 06:46:05;;;;;;;3.35;1.48;;;;;;;7.27;100.00;102696.38;4999414;28;20038;-73
2023/02/10 06:48:31;;;;;;;6.15;2.53;;;;;;;7.26;100.00;102694.69;4998958;28;20427;-74
2023/02/10 06:50:57;;;;;;;5.80;2.22;;;;;;;7.21;100.00;102684.28;4999298;28;20042;-71
2023/02/10 06:53:23;;;;;;;6.78;2.05;;;;;;;7.25;100.00;102688.47;4983057;28;20116;-71
2023/02/10 06:55:48;;;;;;;8.85;2.85;;;;;;;7.22;100.00;102682.47;4982506;28;20044;-72
2023/02/10 06:58:17;;;;;;;10.10;2.65;;;;;;;7.23;100.00;102690.41;5015379;28;20042;-72
2023/02/10 07:00:46;;;;;;;4.75;2.17;;;;;;;7.20;100.00;102689.75;4999120;28;20026;-72
2023/02/10 07:03:16;;;;;;;6.53;1.98;;;;;;;7.21;100.00;102691.47;4997977;28;20030;-72
2023/02/10 07:05:46;;;;;;;7.35;2.55;;;;;;;7.15;100.00;102678.53;5014737;28;20033;-71
2023/02/10 07:08:12;;;;;;;4.72;2.03;;;;;;;7.22;100.00;102682.47;4999386;28;20120;-71
2023/02/10 07:10:38;;;;;;;6.40;3.45;;;;;;;7.26;100.00;102694.69;4982136;28;20487;-71
2023/02/10 07:13:03;;;;;;;4.60;1.58;;;;;;;7.29;100.00;102681.06;4998546;28;20045;-72
2023/02/10 07:15:32;;;;;;;6.68;2.33;;;;;;;7.42;100.00;102694.47;4999157;28;20550;-72
2023/02/10 07:17:59;;;;;;;11.18;2.22;;;;;;;7.51;100.00;102696.47;5013744;28;20068;-73
2023/02/10 07:20:25;;;;;;;6.35;2.08;;;;;;;7.54;100.00;102682.03;4998304;28;20065;-73
2023/02/10 07:22:51;;;;;;;3.42;1.17;;;;;;;7.70;100.00;102691.53;4998675;28;20366;-71
2023/02/10 07:25:20;;;;;;;3.17;1.75;;;;;;;7.81;100.00;102688.09;4998928;28;20041;-72
2023/02/10 07:27:46;;;;;;;3.17;1.15;;;;;;;7.87;100.00;102690.31;4998017;28;20057;-72
2023/02/10 07:30:16;;;;;;;5.13;1.33;;;;;;;7.96;100.00;102690.63;5014982;28;20100;-71
2023/02/10 07:33:03;;;;;;;7.05;1.45;;;;;;;8.07;100.00;102696.94;5001184;28;20041;-72
2023/02/10 07:35:32;;;;;;;2.20;1.13;;;;;;;8.22;100.00;102707.47;4997645;28;20185;-72
2023/02/10 07:37:57;;;;;;;1.88;0.80;;;;;;;8.30;100.00;102700.56;4999025;28;20096;-71
2023/02/10 07:40:23;;;;;;;2.15;0.88;;;;;;;8.40;100.00;102699.94;4998393;28;20361;-73
2023/02/10 07:42:49;;;;;;;3.65;0.63;;;;;;;8.50;100.00;102706.34;4998137;28;20053;-71
2023/02/10 07:45:17;;;;;;;2.13;0.60;;;;;;;8.53;100.00;102703.41;4998621;28;20061;-71
2023/02/10 07:47:43;;;;;;;3.03;0.70;;;;;;;8.61;100.00;102706.38;4998065;28;20040;-71
2023/02/10 07:50:08;;;;;;;1.45;0.70;;;;;;;8.69;100.00;102719.22;4998488;28;20120;-72
2023/02/10 07:52:34;;;;;;;4.22;0.80;;;;;;;8.69;100.00;102717.38;4981373;28;20446;-71
2023/02/10 07:55:02;;;;;;;2.90;1.00;;;;;;;8.72;100.00;102727.88;5014147;28;20034;-72
2023/02/10 07:57:33;;;;;;;5.35;0.85;;;;;;;8.75;100.00;102722.28;4998542;28;20037;-71
2023/02/10 07:59:59;;;;;;;0.75;0.75;;;;;;;8.71;100.00;102712.75;4997483;28;20041;-72
2023/02/10 08:02:24;;;;;;;0.52;0.52;;;;;;;8.76;100.00;102732.03;4998211;28;20041;-71
2023/02/10 08:04:53;;;;;;;3.50;0.70;;;;;;;8.78;100.00;102730.09;4998212;28;20034;-70
2023/02/10 08:07:20;;;;;;;3.03;0.75;;;;;;;8.75;100.00;102741.03;4997927;28;20479;-73
2023/02/10 08:09:46;;;;;;;1.38;0.75;;;;;;;8.75;100.00;102735.69;5014436;28;20399;-72
2023/02/10 08:12:12;;;;;;;2.65;0.85;;;;;;;8.78;100.00;102743.50;4981336;28;20030;-73
2023/02/10 08:14:38;;;;;;;1.65;0.95;;;;;;;8.74;100.00;102733.97;5014001;28;20034;-73
2023/02/10 08:17:07;;;;;;;6.13;0.93;;;;;;;8.81;100.00;102739.72;4997483;28;20479;-71
2023/02/10 08:19:33;;;;;;;4.75;0.98;;;;;;;8.82;100.00;102737.91;4997557;28;20034;-70
2023/02/10 08:21:59;;;;;;;6.50;1.02;;;;;;;8.82;100.00;102735.25;4997064;28;20030;-71
2023/02/10 08:24:24;;;;;;;3.75;1.00;;;;;;;8.85;100.00;102735.84;5012869;28;20092;-72
2023/02/10 08:26:50;;;;;;;7.65;1.27;;;;;;;8.87;100.00;102739.28;4997316;28;20046;-70
2023/02/10 08:29:16;;;;;;;3.30;0.90;;;;;;;8.91;100.00;102734.53;4997585;28;20030;-71
2023/02/10 08:31:42;;;;;;;4.40;1.20;;;;;;;8.94;100.00;102739.66;4997503;28;20034;-71
2023/02/10 08:34:15;;;;;;;4.57;0.90;;;;;;;8.90;100.00;102744.41;4981275;28;20041;-72
2023/02/10 08:36:42;;;;;;;5.40;1.60;;;;;;;8.95;100.00;102749.44;4997472;28;20029;-71
2023/02/10 08:39:08;;;;;;;9.73;1.73;;;;;;;8.92;100.00;102739.78;4981146;28;20057;-72
2023/02/10 08:41:34;;;;;;;2.40;0.80;;;;;;;8.97;100.00;102747.47;4997026;28;20421;-72
2023/02/10 08:44:01;;;;;;;2.97;1.02;;;;;;;8.99;100.00;102746.38;4997169;28;20420;-71
2023/02/10 08:46:27;;;;;;;5.32;1.02;;;;;;;9.00;100.00;102753.47;4996864;28;20096;-72
2023/02/10 08:48:56;;;;;;;3.22;0.93;;;;;;;9.04;100.00;102762.13;4997250;28;20038;-72
2023/02/10 08:51:22;;;;;;;0.75;0.57;;;;;;;9.05;100.00;102761.19;4997101;28;20129;-71
2023/02/10 08:53:50;;;;;;;2.50;0.60;;;;;;;9.07;100.00;102758.38;4997064;28;20100;-71
2023/02/10 08:56:18;;;;;;;4.38;0.68;;;;;;;9.09;100.00;102759.97;4997231;28;20033;-70
2023/02/10 08:58:50;;;;;;;3.95;0.70;;;;;;;9.06;100.00;102759.34;4997062;28;20456;-71
2023/02/10 09:01:18;;;;;;;1.80;0.65;;;;;;;9.11;100.00;102773.28;4995988;28;20038;-71
2023/02/10 09:03:44;;;;;;;2.17;0.80;;;;;;;9.09;100.00;102767.16;4996678;28;20053;-70
2023/02/10 09:06:23;;;;;;;4.63;0.95;;;;;;;9.14;100.00;102767.66;4996665;28;20472;-72
2023/02/10 09:08:58;;;;;;;3.25;0.90;;;;;;;9.17;100.00;102773.66;4997324;28;20042;-73
2023/02/10 09:11:32;;;;;;;4.40;0.90;;;;;;;9.20;100.00;102780.63;4983487;28;20030;-72
2023/02/10 09:13:58;;;;;;;5.65;0.80;;;;;;;9.20;100.00;102770.72;4980242;28;20038;-71
2023/02/10 09:16:24;;;;;;;0.88;0.70;;;;;;;9.24;100.00;102782.94;5012965;28;20033;-71
2023/02/10 09:18:53;;;;;;;5.05;1.10;;;;;;;9.23;100.00;102778.56;4996610;28;20037;-70
2023/02/10 09:21:24;;;;;;;3.75;0.60;;;;;;;9.25;100.00;102781.97;4995589;28;20030;-70
2023/02/10 09:23:50;;;;;;;3.25;1.00;;;;;;;9.27;100.00;102787.22;4996861;28;20120;-72
2023/02/10 09:26:15;;;;;;;2.75;0.98;;;;;;;9.30;100.00;102778.94;4996525;28;20538;-73
2023/02/10 09:28:44;;;;;;;5.07;1.00;;;;;;;9.39;100.00;102782.72;4995996;28;20050;-73
2023/02/10 09:31:11;;;;;;;6.72;1.17;;;;;;;9.55;100.00;102785.97;4997081;28;20029;-74
2023/02/10 09:33:37;;;;;;;5.38;1.25;;;;;;;9.67;100.00;102789.50;5012169;28;20117;-71
2023/02/10 09:36:05;;;;;;;1.40;0.95;;;;;;;9.76;100.00;102790.59;4996639;28;20120;-70
2023/02/10 09:38:30;;;;;;;5.65;1.00;;;;;;;9.79;100.00;102793.03;4980225;28;20044;-70
2023/02/10 09:41:21;;;;;;;3.05;1.05;;;;;;;9.77;100.00;102793.19;4980001;28;20384;-70
2023/02/10 09:44:14;;;;;;;5.43;1.20;;;;;;;9.78;100.00;102802.09;4996605;28;20084;-72
2023/02/10 09:46:49;;;;;;;2.88;1.10;;;;;;;9.75;100.00;102788.91;5012527;28;20037;-70
2023/02/10 09:49:41;;;;;;;3.67;1.67;;;;;;;9.62;100.00;102781.81;5012582;28;20066;-79
2023/02/10 09:52:53;;;;;;;3.35;0.93;;;;;;;9.75;100.00;102800.50;5012148;28;20038;-76
2023/02/10 09:55:32;;;;;;;2.92;1.50;;;;;;;9.79;100.00;102809.16;5012274;28;20533;-77
2023/02/10 09:58:00;;;;;;;9.75;2.38;;;;;;;9.80;100.00;102805.53;4980314;28;20128;-76
2023/02/10 10:00:45;;;;;;;8.27;1.77;;;;;;;9.80;100.00;102810.91;4996191;28;20041;-77
2023/02/10 10:03:20;;;;;;;2.78;1.65;;;;;;;9.82;100.00;102809.81;4996412;28;20045;-77
2023/02/10 10:05:54;;;;;;;1.42;0.75;;;;;;;9.83;100.00;102816.03;5012624;28;20049;-77
2023/02/10 10:08:48;;;;;;;0.50;0.50;;;;;;;9.87;100.00;102809.41;5013660;28;20076;-77
2023/02/10 10:11:49;;;;;;;0.40;0.40;;;;;;;9.88;100.00;102813.84;5013573;28;20121;-78
2023/02/10 10:14:27;;;;;;;0.43;0.43;;;;;;;9.88;100.00;102822.75;5007136;28;20050;-77
2023/02/10 10:17:05;;;;;;;0.50;0.50;;;;;;;9.83;100.00;102816.03;4980247;28;20038;-77
2023/02/10 10:19:43;;;;;;;0.57;0.57;;;;;;;9.78;100.00;102802.94;5012481;28;20103;-77
2023/02/10 10:22:38;;;;;;;0.60;0.60;;;;;;;9.85;100.00;102814.94;5013156;28;20080;-78
2023/02/10 10:25:27;;;;;;;0.50;0.50;;;;;;;9.92;100.00;102812.59;5012632;28;20029;-78
2023/02/10 10:27:55;;;;;;;0.43;0.43;;;;;;;9.91;100.00;102827.88;4995926;28;20113;-78
2023/02/10 10:30:45;;;;;;;0.50;0.50;;;;;;;9.91;100.00;102821.66;5028322;28;20172;-79
2023/02/10 10:33:22;;;;;;;0.63;0.63;;;;;;;9.83;100.00;102814.19;4995800;28;20388;-78
2023/02/10 10:35:48;;;;;;;0.50;0.50;;;;;;;9.88;100.00;102832.66;4996002;28;20124;-81
2023/02/10 10:38:27;;;;;;;0.40;0.40;;;;;;;9.85;100.00;102827.53;5012102;28;20180;-81
2023/02/10 10:40:55;;;;;;;0.40;0.40;;;;;;;9.90;100.00;102825.31;5011742;28;20737;-80
2023/02/10 10:43:29;;;;;;;0.40;0.40;;;;;;;9.89;100.00;102823.59;4979782;28;20120;-78
2023/02/10 10:46:11;;;;;;;0.50;0.50;;;;;;;9.89;100.00;102818.22;4996479;28;20082;-79
2023/02/10 10:48:40;;;;;;;0.40;0.40;;;;;;;10.02;100.00;102834.25;5015349;28;20026;-79
2023/02/10 10:51:06;;;;;;;0.40;0.40;;;;;;;10.01;100.00;102822.63;4999337;28;20046;-80
2023/02/10 10:53:42;;;;;;;0.40;0.40;;;;;;;10.12;100.00;102817.25;5015018;28;20167;-79
2023/02/10 10:56:15;;;;;;;0.40;0.40;;;;;;;10.16;100.00;102825.06;4999793;28;20042;-79
2023/02/10 10:58:44;;;;;;;0.40;0.40;;;;;;;10.26;100.00;102836.81;4998761;28;20365;-81
2023/02/10 11:01:12;;;;;;;0.60;0.60;;;;;;;10.26;100.00;102813.47;4982878;28;20057;-80
2023/02/10 11:03:37;;;;;;;0.43;0.43;;;;;;;10.36;100.00;102832.44;4999134;28;20037;-79
2023/02/10 11:06:15;;;;;;;0.40;0.40;;;;;;;10.52;100.00;102838.28;5015029;28;20164;-79
2023/02/10 11:08:54;;;;;;;0.40;0.40;;;;;;;10.66;100.00;102839.00;4999048;28;20384;-79
2023/02/10 11:11:40;;;;;;;0.70;0.70;;;;;;;10.82;100.00;102838.59;5014853;28;20036;-79
2023/02/10 11:14:26;;;;;;;0.40;0.40;;;;;;;10.75;100.00;102824.78;4999084;28;20053;-79
2023/02/10 11:16:56;;;;;;;0.50;0.50;;;;;;;11.05;100.00;102839.38;5014902;28;20034;-81
2023/02/10 11:19:25;;;;;;;0.40;0.40;;;;;;;10.89;100.00;102840.66;5014561;28;20446;-78
2023/02/10 11:21:52;;;;;;;0.40;0.40;;;;;;;10.79;100.00;102851.31;4998727;28;20124;-80
2023/02/10 11:24:25;;;;;;;0.50;0.50;;;;;;;10.81;100.00;102844.97;5015206;28;20026;-79
2023/02/10 11:27:01;;;;;;;0.40;0.40;;;;;;;10.87;100.00;102847.97;5030578;28;20060;-79
2023/02/10 11:29:33;;;;;;;0.50;0.50;;;;;;;10.96;100.00;102847.25;5014867;28;20502;-78
2023/02/10 11:31:59;;;;;;;0.40;0.40;;;;;;;11.05;100.00;102844.75;4982187;28;20041;-79
2023/02/10 11:34:29;;;;;;;0.50;0.50;;;;;;;11.08;100.00;102844.50;4998187;28;20480;-79
2023/02/10 11:36:59;;;;;;;0.55;0.52;;;;;;;11.18;100.00;102850.81;4981952;28;20107;-79